TimeEST,TemperatureF,Dew PointF,Humidity,Sea Level PressureIn,VisibilityMPH,Wind Direction,Wind SpeedMPH,Gust SpeedMPH,PrecipitationIn,Events,Conditions,WindDirDegrees,DateUTC
12:15 AM,42.1,38.3,86,29.92,10.0,Calm,Calm,-,N/A,,Clear,0,2013-12-30 05:15:00
12:35 AM,43.0,39.2,86,29.93,10.0,WSW,4.6,-,N/A,,Clear,250,2013-12-30 05:35:00
12:55 AM,41.9,38.7,88,29.94,10.0,West,4.6,-,N/A,,Clear,270,2013-12-30 05:55:00
1:15 AM,42.8,38.3,84,29.94,10.0,West,3.5,-,N/A,,Scattered Clouds,280,2013-12-30 06:15:00
1:35 AM,41.4,37.8,87,29.95,10.0,Calm,Calm,-,N/A,,Mostly Cloudy,0,2013-12-30 06:35:00
1:55 AM,39.7,37.4,91,29.95,10.0,Calm,Calm,-,N/A,,Mostly Cloudy,0,2013-12-30 06:55:00
2:15 AM,36.7,34.7,93,29.96,10.0,WNW,3.5,-,N/A,,Scattered Clouds,290,2013-12-30 07:15:00
2:35 AM,35.4,34.0,94,29.96,10.0,WNW,3.5,-,N/A,,Clear,290,2013-12-30 07:35:00
2:55 AM,37.0,34.3,90,29.97,10.0,Calm,Calm,-,N/A,,Clear,0,2013-12-30 07:55:00
3:15 AM,36.5,34.7,93,29.97,10.0,Calm,Calm,-,N/A,,Clear,0,2013-12-30 08:15:00
3:35 AM,35.6,34.7,97,29.97,10.0,WSW,3.5,-,N/A,,Clear,250,2013-12-30 08:35:00
3:55 AM,33.8,32.7,96,29.97,10.0,Calm,Calm,-,N/A,,Clear,0,2013-12-30 08:55:00
4:15 AM,33.4,32.5,96,29.97,10.0,Calm,Calm,-,N/A,,Clear,0,2013-12-30 09:15:00
4:35 AM,35.1,34.3,97,29.96,10.0,WSW,4.6,-,N/A,,Clear,250,2013-12-30 09:35:00
4:55 AM,34.3,33.3,96,29.97,10.0,WSW,3.5,-,N/A,,Clear,250,2013-12-30 09:55:00
5:15 AM,35.6,34.3,95,29.97,10.0,WSW,3.5,-,N/A,,Clear,250,2013-12-30 10:15:00
5:35 AM,35.6,34.2,94,29.99,10.0,SW,3.5,-,N/A,,Mostly Cloudy,230,2013-12-30 10:35:00
5:55 AM,35.6,34.2,94,29.99,10.0,Calm,Calm,-,N/A,,Mostly Cloudy,0,2013-12-30 10:55:00
6:15 AM,34.2,33.1,96,29.99,10.0,Calm,Calm,-,N/A,,Scattered Clouds,0,2013-12-30 11:15:00
6:35 AM,34.3,33.4,97,30.00,10.0,Calm,Calm,-,N/A,,Scattered Clouds,0,2013-12-30 11:35:00
6:55 AM,33.8,33.1,97,30.00,10.0,Calm,Calm,-,N/A,,Clear,0,2013-12-30 11:55:00
7:15 AM,32.9,32.2,97,30.01,7.0,Calm,Calm,-,N/A,,Clear,0,2013-12-30 12:15:00
7:35 AM,34.7,33.8,97,30.01,10.0,Calm,Calm,-,N/A,,Clear,0,2013-12-30 12:35:00
7:55 AM,34.9,34.2,97,30.02,10.0,Calm,Calm,-,N/A,,Clear,0,2013-12-30 12:55:00
8:15 AM,35.4,34.9,98,30.02,10.0,SW,4.6,-,N/A,,Clear,220,2013-12-30 13:15:00
8:40 AM,36.7,35.6,96,30.03,10.0,SW,4.6,-,N/A,,Clear,220,2013-12-30 13:40:00
8:55 AM,37.6,36.0,94,30.04,10.0,WSW,3.5,-,N/A,,Clear,240,2013-12-30 13:55:00
9:15 AM,38.5,36.7,93,30.06,10.0,SW,5.8,-,N/A,,Clear,220,2013-12-30 14:15:00
9:35 AM,41.0,38.3,90,30.08,10.0,WSW,5.8,-,N/A,,Clear,240,2013-12-30 14:35:00
9:55 AM,42.1,38.5,87,30.08,10.0,SW,5.8,-,N/A,,Clear,230,2013-12-30 14:55:00
10:15 AM,43.3,39.0,85,30.08,10.0,SSW,3.5,-,N/A,,Scattered Clouds,210,2013-12-30 15:15:00
10:35 AM,44.1,39.0,82,30.08,10.0,SSW,4.6,-,N/A,,Scattered Clouds,210,2013-12-30 15:35:00
10:55 AM,44.2,39.2,82,30.07,10.0,SW,3.5,-,N/A,,Scattered Clouds,230,2013-12-30 15:55:00
11:15 AM,45.7,40.3,81,30.07,10.0,SW,4.6,-,N/A,,Clear,220,2013-12-30 16:15:00
11:35 AM,47.5,40.5,77,30.06,10.0,SSW,3.5,-,N/A,,Scattered Clouds,210,2013-12-30 16:35:00
11:55 AM,48.4,40.5,74,30.06,10.0,SSW,5.8,-,N/A,,Mostly Cloudy,210,2013-12-30 16:55:00
12:15 PM,49.3,41.0,73,30.07,10.0,WSW,4.6,-,N/A,,Overcast,240,2013-12-30 17:15:00
12:35 PM,48.7,37.6,65,30.07,10.0,North,4.6,-,N/A,,Overcast,350,2013-12-30 17:35:00
12:55 PM,49.3,38.7,67,30.06,10.0,North,3.5,-,N/A,,Mostly Cloudy,10,2013-12-30 17:55:00
1:15 PM,49.1,38.3,66,30.07,10.0,Calm,Calm,-,N/A,,Overcast,0,2013-12-30 18:15:00
1:35 PM,49.1,38.5,67,30.06,10.0,NNE,3.5,-,N/A,,Overcast,20,2013-12-30 18:35:00
1:55 PM,49.5,38.3,65,30.07,10.0,Calm,Calm,-,N/A,,Overcast,0,2013-12-30 18:55:00
2:15 PM,49.5,37.6,64,30.08,10.0,Calm,Calm,-,N/A,,Overcast,0,2013-12-30 19:15:00
2:35 PM,49.3,37.2,63,30.07,10.0,Calm,Calm,-,N/A,,Overcast,0,2013-12-30 19:35:00
2:55 PM,49.5,36.3,61,30.06,10.0,Calm,Calm,-,N/A,,Mostly Cloudy,0,2013-12-30 19:55:00
3:15 PM,49.1,35.6,60,30.07,10.0,NW,3.5,-,N/A,,Mostly Cloudy,310,2013-12-30 20:15:00
3:35 PM,48.7,35.4,60,30.08,10.0,NW,4.6,-,N/A,,Overcast,310,2013-12-30 20:35:00
3:55 PM,48.2,35.6,62,30.08,10.0,NNE,4.6,-,N/A,,Overcast,20,2013-12-30 20:55:00
4:15 PM,46.8,35.2,64,30.09,10.0,NNE,3.5,-,N/A,,Overcast,20,2013-12-30 21:15:00
4:35 PM,46.4,35.1,65,30.09,10.0,Calm,Calm,-,N/A,,Overcast,0,2013-12-30 21:35:00
4:55 PM,45.5,35.1,67,30.09,10.0,North,3.5,-,N/A,,Overcast,10,2013-12-30 21:55:00
5:15 PM,44.8,34.2,66,30.10,10.0,Calm,Calm,-,N/A,,Overcast,0,2013-12-30 22:15:00
5:35 PM,43.9,33.8,68,30.10,10.0,North,3.5,-,N/A,,Mostly Cloudy,10,2013-12-30 22:35:00
5:55 PM,43.7,33.3,67,30.10,10.0,Calm,Calm,-,N/A,,Overcast,0,2013-12-30 22:55:00
6:15 PM,43.2,33.1,68,30.10,10.0,Calm,Calm,-,N/A,,Mostly Cloudy,0,2013-12-30 23:15:00
6:35 PM,42.1,33.1,70,30.11,10.0,Calm,Calm,-,N/A,,Scattered Clouds,0,2013-12-30 23:35:00
6:55 PM,41.9,33.1,71,30.11,10.0,Calm,Calm,-,N/A,,Scattered Clouds,0,2013-12-30 23:55:00
7:15 PM,42.1,32.9,70,30.12,10.0,NNE,3.5,-,N/A,,Mostly Cloudy,20,2013-12-31 00:15:00
7:35 PM,42.1,32.5,69,30.13,10.0,NNE,3.5,-,N/A,,Overcast,20,2013-12-31 00:35:00
7:55 PM,41.9,32.0,68,30.13,10.0,Calm,Calm,-,N/A,,Overcast,0,2013-12-31 00:55:00
8:15 PM,41.4,32.0,69,30.14,10.0,Calm,Calm,-,N/A,,Overcast,0,2013-12-31 01:15:00
8:35 PM,39.4,32.0,75,30.13,10.0,Calm,Calm,-,N/A,,Scattered Clouds,0,2013-12-31 01:35:00
8:55 PM,40.1,32.0,73,30.14,10.0,NNE,3.5,-,N/A,,Mostly Cloudy,30,2013-12-31 01:55:00
9:15 PM,40.3,32.0,72,30.15,10.0,Calm,Calm,-,N/A,,Overcast,0,2013-12-31 02:15:00
9:35 PM,40.3,31.8,72,30.14,10.0,Calm,Calm,-,N/A,,Overcast,0,2013-12-31 02:35:00
9:55 PM,39.7,31.6,73,30.14,10.0,Calm,Calm,-,N/A,,Overcast,0,2013-12-31 02:55:00
10:15 PM,39.2,32.0,75,30.14,10.0,Calm,Calm,-,N/A,,Overcast,0,2013-12-31 03:15:00
10:35 PM,39.2,32.0,75,30.14,10.0,Calm,Calm,-,N/A,,Overcast,0,2013-12-31 03:35:00
10:55 PM,39.4,32.0,75,30.14,10.0,Calm,Calm,-,N/A,,Overcast,0,2013-12-31 03:55:00
11:15 PM,39.2,31.8,75,30.14,10.0,Calm,Calm,-,N/A,,Overcast,0,2013-12-31 04:15:00
11:35 PM,39.4,31.8,74,30.14,10.0,Calm,Calm,-,N/A,,Overcast,0,2013-12-31 04:35:00
11:55 PM,39.2,32.2,76,30.14,10.0,Calm,Calm,-,N/A,,Overcast,0,2013-12-31 04:55:00